Vavau International (NFTV)

Aerodrome — Elev 236
Tonga
S018.35.07.210 W173.57.42.180
Loading chart...

Current Weather

NFTV 151800Z 02009KT 9999 SCT009 BKN017 BKN110 26/25 Q1008

Published 51 minutes ago

Airport Activity

Loading chart...
Loading chart...

Standard ATC Positions

CallsignRadio Name / Freq / Voice Room / TypeFrequencyVoice RoomType
NZZO_FSS Auckland Radio
128.900
nzzo_fss
128.900nzzo_fss
NFTV_TWR Vavau Tower
118.100
nftv_twr
118.100nftv_twr
UNICOM NZZO UNICOM
122.800
unicom_nzzo
122.800unicom_nzzo

Event ATC Positions

This airport has control positions that are designated for use only during major events.
These positions should not be staffed unless specifically activated by the VATNZ Airspace Director as part of an official VATNZ event.

CallsignRadio Name / Freq / Voice Room / TypeFrequencyVoice RoomType
NSFA_CTR Faleolo Control
123.800
nsfa_ctr
123.800nsfa_ctr